createdAt,value
2022-12-18T00:02:16.070Z,13.90
2022-12-18T00:08:10.897Z,13.80
2022-12-18T00:14:04.285Z,12.73
2022-12-18T00:19:57.744Z,12.60
2022-12-18T00:25:52.533Z,11.97
2022-12-18T00:31:46.310Z,11.40
2022-12-18T00:37:39.756Z,10.23
2022-12-18T00:43:37.264Z,11.83
2022-12-18T00:49:31.175Z,9.20
2022-12-18T00:55:24.647Z,10.37
2022-12-18T01:01:20.295Z,11.00
2022-12-18T01:07:13.771Z,11.27
2022-12-18T01:13:06.826Z,9.87
2022-12-18T01:19:01.556Z,10.17
2022-12-18T01:24:55.045Z,11.00
2022-12-18T01:30:49.886Z,10.23
2022-12-18T01:36:44.696Z,11.20
2022-12-18T01:42:38.089Z,8.37
2022-12-18T01:48:31.551Z,8.80
2022-12-18T01:54:26.429Z,10.60
2022-12-18T02:00:23.172Z,8.63
2022-12-18T02:06:22.649Z,6.87
2022-12-18T02:12:22.654Z,7.57
2022-12-18T02:18:23.036Z,7.83
2022-12-18T02:24:26.718Z,10.67
2022-12-18T02:30:22.184Z,9.50
2022-12-18T02:36:18.573Z,10.50
2022-12-18T02:42:14.173Z,8.53
2022-12-18T02:48:10.827Z,10.80
2022-12-18T02:54:12.693Z,7.87
2022-12-18T03:00:09.994Z,12.50
2022-12-18T03:06:11.057Z,12.13
2022-12-18T03:12:26.609Z,8.27
2022-12-18T03:18:26.009Z,7.43
2022-12-18T03:24:22.873Z,8.83
2022-12-18T03:30:17.949Z,8.17
2022-12-18T03:36:12.495Z,7.90
2022-12-18T03:42:13.941Z,10.37
2022-12-18T03:48:18.679Z,8.60
2022-12-18T03:54:14.326Z,11.77
2022-12-18T04:00:19.855Z,11.00
2022-12-18T04:06:23.305Z,8.83
2022-12-18T04:12:18.233Z,8.57
2022-12-18T04:18:15.155Z,8.83
2022-12-18T04:24:10.796Z,11.70
2022-12-18T04:30:10.530Z,9.77
2022-12-18T04:36:06.112Z,9.23
2022-12-18T04:41:59.757Z,9.50
2022-12-18T04:47:52.732Z,11.90
2022-12-18T04:53:47.636Z,11.80
2022-12-18T04:59:41.335Z,10.17
2022-12-18T05:05:36.214Z,7.93
2022-12-18T05:11:31.029Z,8.37
2022-12-18T05:17:24.517Z,8.93
2022-12-18T05:23:18.080Z,10.80
2022-12-18T05:29:14.135Z,11.60
2022-12-18T05:35:09.850Z,9.87
2022-12-18T05:41:03.419Z,10.57
2022-12-18T05:46:58.380Z,10.83
2022-12-18T05:52:52.956Z,9.03
2022-12-18T05:58:48.147Z,10.10
2022-12-18T06:04:42.762Z,10.63
2022-12-18T06:10:36.483Z,12.30
2022-12-18T06:16:32.289Z,12.90
2022-12-18T06:22:27.556Z,14.43
2022-12-18T06:28:21.067Z,12.60
2022-12-18T06:34:15.673Z,10.67
2022-12-18T06:40:10.938Z,11.20
2022-12-18T06:46:08.449Z,13.10
2022-12-18T06:52:02.290Z,15.27
2022-12-18T06:57:57.160Z,11.47
2022-12-18T07:04:15.311Z,11.23
2022-12-18T07:10:23.886Z,12.70
2022-12-18T07:16:25.341Z,14.97
2022-12-18T07:22:20.460Z,12.90
2022-12-18T07:28:17.605Z,12.33
2022-12-18T07:34:14.158Z,11.40
2022-12-18T07:40:08.804Z,11.60
2022-12-18T07:46:02.168Z,11.90
2022-12-18T07:51:58.702Z,12.30
2022-12-18T07:57:55.403Z,16.13
2022-12-18T08:03:53.288Z,11.53
2022-12-18T08:09:48.520Z,13.53
2022-12-18T08:15:42.245Z,13.97
2022-12-18T08:21:35.694Z,14.77
2022-12-18T08:27:30.687Z,18.17
2022-12-18T08:33:24.310Z,13.13
2022-12-18T08:39:17.873Z,16.37
2022-12-18T08:45:13.214Z,12.10
2022-12-18T08:51:06.948Z,13.30
2022-12-18T08:57:00.736Z,14.03
2022-12-18T09:02:55.790Z,16.40
2022-12-18T09:08:49.475Z,14.47
2022-12-18T09:14:42.629Z,13.73
2022-12-18T09:20:37.459Z,15.73
2022-12-18T09:26:30.554Z,13.53
2022-12-18T09:32:24.090Z,11.40
2022-12-18T09:38:20.351Z,15.47
2022-12-18T09:44:20.248Z,12.87
2022-12-18T09:50:26.174Z,13.37
2022-12-18T09:56:24.247Z,12.50
2022-12-18T10:02:20.159Z,13.80
2022-12-18T10:08:20.098Z,13.17
2022-12-18T10:14:22.478Z,13.03
2022-12-18T10:20:22.165Z,14.53
2022-12-18T10:26:15.618Z,13.97
2022-12-18T10:32:17.180Z,11.00
2022-12-18T10:38:25.863Z,14.73
2022-12-18T10:44:22.887Z,11.50
2022-12-18T10:50:47.211Z,14.00
2022-12-18T10:56:44.855Z,12.93
2022-12-18T11:02:40.632Z,13.50
2022-12-18T11:08:36.113Z,14.50
2022-12-18T11:14:30.840Z,15.88
2022-12-18T11:20:33.549Z,15.70
2022-12-18T11:26:37.543Z,12.60
2022-12-18T11:32:36.067Z,15.00
2022-12-18T11:38:33.142Z,15.40
2022-12-18T11:44:34.105Z,15.50
2022-12-18T11:50:32.261Z,19.50
2022-12-18T11:56:34.445Z,20.33
2022-12-18T12:02:44.431Z,15.10
2022-12-18T12:08:49.520Z,15.07
2022-12-18T12:14:52.876Z,16.80
2022-12-18T12:20:56.033Z,14.73
2022-12-18T12:26:57.894Z,14.67
2022-12-18T12:33:10.350Z,14.43
2022-12-18T12:39:10.711Z,16.10
2022-12-18T12:45:09.291Z,16.70
2022-12-18T12:51:05.232Z,17.87
2022-12-18T12:57:10.488Z,13.77
2022-12-18T13:03:14.564Z,15.70
2022-12-18T13:09:08.699Z,14.47
2022-12-18T13:15:24.142Z,14.30
2022-12-18T13:21:24.774Z,14.70
2022-12-18T13:28:02.823Z,14.97
2022-12-18T13:34:26.221Z,16.77
2022-12-18T13:40:58.931Z,14.03
2022-12-18T13:46:53.830Z,13.53
2022-12-18T13:52:48.719Z,15.40
2022-12-18T13:58:42.549Z,16.37
2022-12-18T14:04:37.495Z,18.60
2022-12-18T14:10:45.526Z,21.77
2022-12-18T14:16:43.374Z,20.23
2022-12-18T14:22:37.097Z,17.37
2022-12-18T14:28:32.464Z,19.90
2022-12-18T14:34:29.346Z,20.20
2022-12-18T14:40:22.848Z,23.10
2022-12-18T14:46:35.135Z,20.67
2022-12-18T14:52:31.547Z,23.80
2022-12-18T14:58:25.550Z,24.93
2022-12-18T15:04:31.247Z,22.30
2022-12-18T15:10:27.419Z,26.10
2022-12-18T15:16:21.135Z,27.20
2022-12-18T15:22:32.054Z,23.90
2022-12-18T15:28:27.813Z,22.23
2022-12-18T15:34:23.706Z,22.70
2022-12-18T15:40:20.559Z,24.70
2022-12-18T15:46:16.266Z,25.40
2022-12-18T15:52:27.348Z,27.27
2022-12-18T15:58:22.315Z,25.57
2022-12-18T16:04:17.054Z,27.30
2022-12-18T16:10:11.068Z,29.07
2022-12-18T16:16:06.255Z,29.10
2022-12-18T16:22:01.586Z,25.40
2022-12-18T16:27:55.991Z,26.67
2022-12-18T16:33:51.007Z,28.60
2022-12-18T16:39:44.885Z,24.30
2022-12-18T16:45:37.901Z,26.90
2022-12-18T16:51:37.026Z,26.77
2022-12-18T16:57:30.484Z,20.40
2022-12-18T17:03:23.584Z,21.60
2022-12-18T17:09:19.009Z,20.23
2022-12-18T17:15:12.932Z,21.97
2022-12-18T17:21:10.903Z,21.20
2022-12-18T17:27:06.209Z,22.57
2022-12-18T17:32:59.570Z,22.40
2022-12-18T17:38:54.633Z,22.17
2022-12-18T17:44:49.672Z,21.10
2022-12-18T17:50:43.048Z,21.13
2022-12-18T17:56:36.406Z,18.47
2022-12-18T18:02:31.322Z,17.57
2022-12-18T18:08:25.670Z,16.13
2022-12-18T18:14:21.743Z,18.80
2022-12-18T18:20:22.644Z,16.20
2022-12-18T18:26:16.371Z,16.30
2022-12-18T18:32:10.031Z,15.60
2022-12-18T18:38:04.960Z,15.17
2022-12-18T18:43:59.911Z,12.83
2022-12-18T18:49:53.603Z,16.33
2022-12-18T18:56:04.037Z,16.60
2022-12-18T19:02:04.798Z,14.90
2022-12-18T19:07:58.539Z,13.33
2022-12-18T19:13:53.279Z,12.60
2022-12-18T19:19:49.744Z,14.10
2022-12-18T19:25:43.466Z,13.70
2022-12-18T19:31:38.793Z,14.63
2022-12-18T19:37:32.436Z,12.67
2022-12-18T19:43:25.594Z,13.97
2022-12-18T19:49:24.091Z,15.17
2022-12-18T19:55:18.051Z,14.97
2022-12-18T20:01:16.233Z,19.20
2022-12-18T20:07:13.164Z,15.93
2022-12-18T20:13:09.720Z,22.67
2022-12-18T20:19:03.168Z,15.20
2022-12-18T20:24:58.353Z,15.87
2022-12-18T20:30:52.627Z,14.87
2022-12-18T20:36:46.433Z,16.53
2022-12-18T20:42:41.382Z,16.50
2022-12-18T20:48:35.270Z,17.97
2022-12-18T20:54:29.433Z,16.00
2022-12-18T21:00:24.385Z,14.33
2022-12-18T21:06:19.814Z,14.80
2022-12-18T21:12:29.384Z,17.77
2022-12-18T21:18:27.823Z,15.90
2022-12-18T21:24:22.160Z,16.50
2022-12-18T21:30:16.030Z,13.10
2022-12-18T21:36:11.624Z,17.37
2022-12-18T21:42:23.170Z,17.03
2022-12-18T21:48:16.259Z,15.23
2022-12-18T21:54:11.405Z,15.60
2022-12-18T22:00:05.869Z,16.67
2022-12-18T22:06:09.377Z,18.97
2022-12-18T22:12:04.579Z,14.63
2022-12-18T22:18:00.329Z,15.87
2022-12-18T22:23:55.547Z,16.00
2022-12-18T22:30:05.640Z,17.00
2022-12-18T22:37:05.302Z,17.17
2022-12-18T22:42:59.028Z,20.23
2022-12-18T22:48:54.192Z,19.30
2022-12-18T22:54:47.649Z,18.47
2022-12-18T23:00:41.882Z,17.93
2022-12-18T23:06:42.616Z,20.07
2022-12-18T23:12:37.903Z,17.30
2022-12-18T23:18:31.930Z,15.97
2022-12-18T23:24:26.935Z,18.40
2022-12-18T23:30:20.514Z,17.40
2022-12-18T23:36:15.001Z,19.17
2022-12-18T23:42:09.835Z,17.60
2022-12-18T23:48:05.229Z,18.40
2022-12-18T23:54:01.263Z,18.40
2022-12-18T23:59:56.087Z,15.37
